sensor_id;sensor_type;location;lat;lon;timestamp;pressure;altitude;pressure_sealevel;temperature;humidity
22755;BME280;11544;42.020;23.094;2022-12-29T00:00:45;98190.03;;;6.02;100.00
22755;BME280;11544;42.020;23.094;2022-12-29T00:03:12;98198.66;;;5.91;100.00
22755;BME280;11544;42.020;23.094;2022-12-29T00:05:39;98190.94;;;5.98;100.00
22755;BME280;11544;42.020;23.094;2022-12-29T00:08:06;98195.19;;;6.14;100.00
22755;BME280;11544;42.020;23.094;2022-12-29T00:10:33;98195.19;;;6.14;100.00
22755;BME280;11544;42.020;23.094;2022-12-29T00:13:00;98196.09;;;5.99;100.00
22755;BME280;11544;42.020;23.094;2022-12-29T00:15:46;98200.38;;;6.14;100.00
22755;BME280;11544;42.020;23.094;2022-12-29T00:18:13;98193.50;;;5.78;100.00
22755;BME280;11544;42.020;23.094;2022-12-29T00:20:43;98206.44;;;5.73;100.00
22755;BME280;11544;42.020;23.094;2022-12-29T00:23:28;98202.97;;;5.80;100.00
22755;BME280;11544;42.020;23.094;2022-12-29T00:26:16;98200.41;;;5.74;100.00
22755;BME280;11544;42.020;23.094;2022-12-29T00:29:02;98201.25;;;5.85;100.00
22755;BME280;11544;42.020;23.094;2022-12-29T00:31:53;98199.53;;;5.81;100.00
22755;BME280;11544;42.020;23.094;2022-12-29T00:34:47;98191.75;;;5.83;100.00
22755;BME280;11544;42.020;23.094;2022-12-29T00:37:34;98191.75;;;5.93;100.00
22755;BME280;11544;42.020;23.094;2022-12-29T00:40:19;98197.78;;;5.85;100.00
22755;BME280;11544;42.020;23.094;2022-12-29T00:43:05;98201.28;;;5.62;100.00
22755;BME280;11544;42.020;23.094;2022-12-29T00:45:53;98196.94;;;5.80;100.00
22755;BME280;11544;42.020;23.094;2022-12-29T00:48:26;98201.25;;;5.64;100.00
22755;BME280;11544;42.020;23.094;2022-12-29T00:51:11;98198.69;;;5.62;100.00
22755;BME280;11544;42.020;23.094;2022-12-29T00:53:40;98195.22;;;5.72;100.00
22755;BME280;11544;42.020;23.094;2022-12-29T00:56:16;98190.03;;;5.49;100.00
22755;BME280;11544;42.020;23.094;2022-12-29T00:58:44;98190.06;;;5.77;100.00
22755;BME280;11544;42.020;23.094;2022-12-29T01:01:12;98182.31;;;5.69;100.00
22755;BME280;11544;42.020;23.094;2022-12-29T01:03:46;98178.81;;;6.06;100.00
22755;BME280;11544;42.020;23.094;2022-12-29T01:06:17;98168.41;;;6.32;100.00
22755;BME280;11544;42.020;23.094;2022-12-29T01:08:48;98177.97;;;5.84;100.00
22755;BME280;11544;42.020;23.094;2022-12-29T01:11:48;98176.25;;;5.84;100.00
22755;BME280;11544;42.020;23.094;2022-12-29T01:14:17;98173.69;;;5.63;100.00
22755;BME280;11544;42.020;23.094;2022-12-29T01:16:45;98178.00;;;5.62;100.00
22755;BME280;11544;42.020;23.094;2022-12-29T01:19:13;98180.56;;;5.61;100.00
22755;BME280;11544;42.020;23.094;2022-12-29T01:21:40;98179.72;;;5.51;100.00
22755;BME280;11544;42.020;23.094;2022-12-29T01:24:07;98171.06;;;5.86;100.00
22755;BME280;11544;42.020;23.094;2022-12-29T01:26:34;98168.50;;;5.77;100.00
22755;BME280;11544;42.020;23.094;2022-12-29T01:29:01;98168.47;;;6.04;100.00
22755;BME280;11544;42.020;23.094;2022-12-29T01:31:28;98165.88;;;6.09;100.00
22755;BME280;11544;42.020;23.094;2022-12-29T01:33:55;98149.44;;;6.27;100.00
22755;BME280;11544;42.020;23.094;2022-12-29T01:36:23;98159.84;;;5.85;100.00
22755;BME280;11544;42.020;23.094;2022-12-29T01:38:50;98154.69;;;5.68;100.00
22755;BME280;11544;42.020;23.094;2022-12-29T01:41:17;98159.00;;;5.63;100.00
22755;BME280;11544;42.020;23.094;2022-12-29T01:43:45;98159.84;;;5.82;100.00
22755;BME280;11544;42.020;23.094;2022-12-29T01:51:59;98168.47;;;5.80;100.00
22755;BME280;11544;42.020;23.094;2022-12-29T01:54:53;98165.00;;;5.85;100.00
22755;BME280;11544;42.020;23.094;2022-12-29T01:57:32;98166.75;;;5.52;100.00
22755;BME280;11544;42.020;23.094;2022-12-29T02:00:07;98159.88;;;5.56;100.00
22755;BME280;11544;42.020;23.094;2022-12-29T02:02:35;98165.91;;;5.43;100.00
22755;BME280;11544;42.020;23.094;2022-12-29T02:05:09;98159.88;;;5.45;100.00
22755;BME280;11544;42.020;23.094;2022-12-29T02:07:37;98158.16;;;5.52;100.00
22755;BME280;11544;42.020;23.094;2022-12-29T02:10:05;98154.69;;;5.67;100.00
22755;BME280;11544;42.020;23.094;2022-12-29T02:12:33;98146.06;;;5.54;100.00
22755;BME280;11544;42.020;23.094;2022-12-29T02:15:02;98146.09;;;5.56;100.00
22755;BME280;11544;42.020;23.094;2022-12-29T02:32:38;98150.38;;;5.40;100.00
22755;BME280;11544;42.020;23.094;2022-12-29T02:38:12;98142.63;;;5.47;100.00
22755;BME280;11544;42.020;23.094;2022-12-29T02:40:48;98145.22;;;5.44;100.00
22755;BME280;11544;42.020;23.094;2022-12-29T02:51:50;98136.56;;;5.94;100.00
22755;BME280;11544;42.020;23.094;2022-12-29T02:54:21;98136.56;;;6.01;100.00
22755;BME280;11544;42.020;23.094;2022-12-29T02:57:27;98132.22;;;6.09;100.00
22755;BME280;11544;42.020;23.094;2022-12-29T03:00:06;98139.13;;;6.02;100.00
22755;BME280;11544;42.020;23.094;2022-12-29T03:08:31;98135.66;;;6.12;100.00
22755;BME280;11544;42.020;23.094;2022-12-29T03:13:59;98136.53;;;6.07;100.00
22755;BME280;11544;42.020;23.094;2022-12-29T03:16:55;98133.97;;;5.84;100.00
22755;BME280;11544;42.020;23.094;2022-12-29T03:19:35;98133.09;;;5.83;100.00
22755;BME280;11544;42.020;23.094;2022-12-29T03:22:12;98129.66;;;6.00;100.00
22755;BME280;11544;42.020;23.094;2022-12-29T03:25:04;98133.97;;;5.71;100.00
22755;BME280;11544;42.020;23.094;2022-12-29T03:27:45;98130.56;;;5.54;100.00
22755;BME280;11544;42.020;23.094;2022-12-29T03:30:13;98126.25;;;5.41;100.00
22755;BME280;11544;42.020;23.094;2022-12-29T03:32:48;98128.81;;;5.55;100.00
22755;BME280;11544;42.020;23.094;2022-12-29T03:35:19;98134.03;;;5.39;100.00
22755;BME280;11544;42.020;23.094;2022-12-29T03:38:02;98132.31;;;5.46;100.00
22755;BME280;11544;42.020;23.094;2022-12-29T03:40:32;98145.22;;;5.32;100.00
22755;BME280;11544;42.020;23.094;2022-12-29T03:43:02;98142.63;;;5.63;100.00
22755;BME280;11544;42.020;23.094;2022-12-29T03:45:29;98147.78;;;5.73;100.00
22755;BME280;11544;42.020;23.094;2022-12-29T03:47:56;98146.91;;;5.85;100.00
22755;BME280;11544;42.020;23.094;2022-12-29T03:50:23;98147.78;;;5.77;100.00
22755;BME280;11544;42.020;23.094;2022-12-29T03:52:50;98145.19;;;5.69;100.00
22755;BME280;11544;42.020;23.094;2022-12-29T03:55:17;98143.50;;;5.46;100.00
22755;BME280;11544;42.020;23.094;2022-12-29T03:57:43;98153.84;;;5.59;100.00
22755;BME280;11544;42.020;23.094;2022-12-29T04:00:11;98154.69;;;5.68;100.00
22755;BME280;11544;42.020;23.094;2022-12-29T04:02:38;98152.09;;;5.33;100.00
22755;BME280;11544;42.020;23.094;2022-12-29T04:05:06;98163.31;;;5.47;100.00
22755;BME280;11544;42.020;23.094;2022-12-29T04:07:33;98167.63;;;5.65;100.00
22755;BME280;11544;42.020;23.094;2022-12-29T04:10:00;98157.25;;;5.71;100.00
22755;BME280;11544;42.020;23.094;2022-12-29T04:12:26;98164.19;;;5.72;100.00
22755;BME280;11544;42.020;23.094;2022-12-29T04:14:53;98162.44;;;5.93;100.00
22755;BME280;11544;42.020;23.094;2022-12-29T04:17:48;98160.72;;;6.01;100.00
22755;BME280;11544;42.020;23.094;2022-12-29T04:27:14;98157.31;;;5.58;100.00
22755;BME280;11544;42.020;23.094;2022-12-29T04:30:03;98159.88;;;5.65;100.00
22755;BME280;11544;42.020;23.094;2022-12-29T04:33:34;98158.13;;;5.93;100.00
22755;BME280;11544;42.020;23.094;2022-12-29T04:36:22;98165.91;;;5.81;100.00
22755;BME280;11544;42.020;23.094;2022-12-29T04:38:55;98164.16;;;5.82;100.00
22755;BME280;11544;42.020;23.094;2022-12-29T04:41:22;98168.50;;;5.54;100.00
22755;BME280;11544;42.020;23.094;2022-12-29T04:43:49;98171.94;;;5.68;100.00
22755;BME280;11544;42.020;23.094;2022-12-29T04:46:16;98169.34;;;5.68;100.00
22755;BME280;11544;42.020;23.094;2022-12-29T04:48:43;98171.09;;;5.81;100.00
22755;BME280;11544;42.020;23.094;2022-12-29T04:51:10;98168.50;;;5.81;100.00
22755;BME280;11544;42.020;23.094;2022-12-29T04:53:37;98165.00;;;5.90;100.00
22755;BME280;11544;42.020;23.094;2022-12-29T04:56:04;98177.13;;;5.99;100.00
22755;BME280;11544;42.020;23.094;2022-12-29T04:58:31;98166.72;;;5.92;100.00
22755;BME280;11544;42.020;23.094;2022-12-29T05:00:58;98174.53;;;5.66;100.00
22755;BME280;11544;42.020;23.094;2022-12-29T05:03:25;98174.53;;;5.51;100.00
22755;BME280;11544;42.020;23.094;2022-12-29T05:05:56;98180.56;;;5.62;100.00
22755;BME280;11544;42.020;23.094;2022-12-29T05:08:23;98176.28;;;5.55;100.00
22755;BME280;11544;42.020;23.094;2022-12-29T05:10:54;98184.88;;;5.60;100.00
22755;BME280;11544;42.020;23.094;2022-12-29T05:13:21;98184.88;;;5.66;100.00
22755;BME280;11544;42.020;23.094;2022-12-29T05:15:52;98192.66;;;5.60;100.00
22755;BME280;11544;42.020;23.094;2022-12-29T05:18:19;98196.94;;;5.60;100.00
22755;BME280;11544;42.020;23.094;2022-12-29T05:20:47;98184.88;;;5.68;100.00
22755;BME280;11544;42.020;23.094;2022-12-29T05:23:16;98188.31;;;5.75;100.00
22755;BME280;11544;42.020;23.094;2022-12-29T05:25:56;98194.34;;;5.60;100.00
22755;BME280;11544;42.020;23.094;2022-12-29T05:28:23;98199.53;;;5.58;100.00
22755;BME280;11544;42.020;23.094;2022-12-29T05:31:06;98202.97;;;5.40;100.00
22755;BME280;11544;42.020;23.094;2022-12-29T05:33:34;98196.09;;;5.56;100.00
22755;BME280;11544;42.020;23.094;2022-12-29T05:36:07;98204.72;;;5.80;100.00
22755;BME280;11544;42.020;23.094;2022-12-29T05:38:35;98198.69;;;5.96;100.00
22755;BME280;11544;42.020;23.094;2022-12-29T05:41:02;98195.19;;;5.92;100.00
22755;BME280;11544;42.020;23.094;2022-12-29T05:43:29;98193.50;;;5.82;100.00
22755;BME280;11544;42.020;23.094;2022-12-29T05:45:56;98185.72;;;5.84;100.00
22755;BME280;11544;42.020;23.094;2022-12-29T05:48:28;98197.81;;;5.74;100.00
22755;BME280;11544;42.020;23.094;2022-12-29T05:51:17;98201.25;;;5.48;100.00
22755;BME280;11544;42.020;23.094;2022-12-29T05:53:47;98203.81;;;5.33;100.00
22755;BME280;11544;42.020;23.094;2022-12-29T05:56:13;98202.94;;;5.31;100.00
22755;BME280;11544;42.020;23.094;2022-12-29T05:58:40;98209.03;;;5.61;100.00
22755;BME280;11544;42.020;23.094;2022-12-29T06:01:07;98203.81;;;5.45;100.00
22755;BME280;11544;42.020;23.094;2022-12-29T06:03:34;98208.16;;;5.34;100.00
22755;BME280;11544;42.020;23.094;2022-12-29T06:06:01;98216.78;;;5.53;100.00
22755;BME280;11544;42.020;23.094;2022-12-29T06:08:28;98214.19;;;5.68;100.00
22755;BME280;11544;42.020;23.094;2022-12-29T06:10:55;98215.03;;;5.60;100.00
22755;BME280;11544;42.020;23.094;2022-12-29T06:13:22;98217.66;;;5.55;100.00
22755;BME280;11544;42.020;23.094;2022-12-29T06:15:52;98216.78;;;5.59;100.00
22755;BME280;11544;42.020;23.094;2022-12-29T06:18:19;98225.41;;;5.69;100.00
22755;BME280;11544;42.020;23.094;2022-12-29T06:20:47;98217.66;;;6.06;100.00
22755;BME280;11544;42.020;23.094;2022-12-29T06:23:14;98215.88;;;6.29;100.00
22755;BME280;11544;42.020;23.094;2022-12-29T06:25:43;98215.09;;;5.98;100.00
22755;BME280;11544;42.020;23.094;2022-12-29T06:28:10;98211.63;;;6.05;100.00
22755;BME280;11544;42.020;23.094;2022-12-29T06:30:38;98214.22;;;6.01;100.00
22755;BME280;11544;42.020;23.094;2022-12-29T06:33:05;98210.75;;;6.08;100.00
22755;BME280;11544;42.020;23.094;2022-12-29T06:35:32;98221.09;;;5.69;100.00
22755;BME280;11544;42.020;23.094;2022-12-29T06:37:59;98219.38;;;5.84;100.00
22755;BME280;11544;42.020;23.094;2022-12-29T06:40:25;98229.75;;;6.01;100.00
22755;BME280;11544;42.020;23.094;2022-12-29T06:42:52;98228.84;;;5.92;100.00
22755;BME280;11544;42.020;23.094;2022-12-29T06:45:19;98238.34;;;5.93;100.00
22755;BME280;11544;42.020;23.094;2022-12-29T06:47:46;98240.09;;;5.88;100.00
22755;BME280;11544;42.020;23.094;2022-12-29T06:50:13;98237.47;;;5.71;100.00
22755;BME280;11544;42.020;23.094;2022-12-29T06:52:40;98240.06;;;5.75;100.00
22755;BME280;11544;42.020;23.094;2022-12-29T06:55:07;98239.22;;;6.11;100.00
22755;BME280;11544;42.020;23.094;2022-12-29T06:57:34;98235.78;;;5.95;100.00
22755;BME280;11544;42.020;23.094;2022-12-29T07:00:03;98242.69;;;5.99;100.00
22755;BME280;11544;42.020;23.094;2022-12-29T07:02:29;98244.41;;;6.06;100.00
22755;BME280;11544;42.020;23.094;2022-12-29T07:04:56;98245.19;;;6.38;100.00
22755;BME280;11544;42.020;23.094;2022-12-29T07:07:23;98240.94;;;6.20;100.00
22755;BME280;11544;42.020;23.094;2022-12-29T07:09:50;98245.25;;;6.13;100.00
22755;BME280;11544;42.020;23.094;2022-12-29T07:12:17;98242.69;;;6.10;100.00
22755;BME280;11544;42.020;23.094;2022-12-29T07:14:44;98246.09;;;6.18;100.00
22755;BME280;11544;42.020;23.094;2022-12-29T07:17:10;98244.28;;;6.60;100.00
22755;BME280;11544;42.020;23.094;2022-12-29T07:19:37;98246.03;;;6.53;100.00
22755;BME280;11544;42.020;23.094;2022-12-29T07:22:04;98240.03;;;6.34;100.00
22755;BME280;11544;42.020;23.094;2022-12-29T07:24:31;98242.59;;;6.47;100.00
22755;BME280;11544;42.020;23.094;2022-12-29T07:26:58;98243.47;;;6.50;100.00
22755;BME280;11544;42.020;23.094;2022-12-29T07:29:24;98241.63;;;6.75;100.00
22755;BME280;11544;42.020;23.094;2022-12-29T07:31:51;98237.41;;;6.59;100.00
22755;BME280;11544;42.020;23.094;2022-12-29T07:34:18;98240.84;;;6.63;100.00
22755;BME280;11544;42.020;23.094;2022-12-29T07:39:20;98236.44;;;6.82;100.00
22755;BME280;11544;42.020;23.094;2022-12-29T07:41:47;98233.84;;;6.75;100.00
22755;BME280;11544;42.020;23.094;2022-12-29T07:44:14;98235.59;;;6.78;100.00
22755;BME280;11544;42.020;23.094;2022-12-29T07:46:42;98225.22;;;6.79;100.00
22755;BME280;11544;42.020;23.094;2022-12-29T07:49:22;98228.69;;;6.78;100.00
22755;BME280;11544;42.020;23.094;2022-12-29T07:51:49;98225.22;;;6.79;100.00
22755;BME280;11544;42.020;23.094;2022-12-29T07:54:15;98230.44;;;6.72;100.00
22755;BME280;11544;42.020;23.094;2022-12-29T07:56:45;98229.44;;;6.99;100.00
22755;BME280;11544;42.020;23.094;2022-12-29T07:59:11;98227.75;;;6.93;100.00
22755;BME280;11544;42.020;23.094;2022-12-29T08:01:38;98238.13;;;6.87;100.00
22755;BME280;11544;42.020;23.094;2022-12-29T08:04:06;98235.47;;;7.09;100.00
22755;BME280;11544;42.020;23.094;2022-12-29T08:06:33;98231.22;;;6.92;100.00
22755;BME280;11544;42.020;23.094;2022-12-29T08:08:59;98234.66;;;6.97;100.00
22755;BME280;11544;42.020;23.094;2022-12-29T08:11:38;98233.66;;;7.20;100.00
22755;BME280;11544;42.020;23.094;2022-12-29T08:14:06;98246.66;;;7.11;100.00
22755;BME280;11544;42.020;23.094;2022-12-29T08:16:34;98239.72;;;7.19;100.00
22755;BME280;11544;42.020;23.094;2022-12-29T08:19:01;98234.44;;;7.34;100.00
22755;BME280;11544;42.020;23.094;2022-12-29T08:21:28;98238.75;;;7.35;100.00
22755;BME280;11544;42.020;23.094;2022-12-29T08:23:55;98237.94;;;7.30;100.00
22755;BME280;11544;42.020;23.094;2022-12-29T08:26:22;98242.09;;;7.54;100.00
22755;BME280;11544;42.020;23.094;2022-12-29T08:28:52;98240.91;;;7.95;100.00
22755;BME280;11544;42.020;23.094;2022-12-29T08:31:19;98237.34;;;8.09;100.00
22755;BME280;11544;42.020;23.094;2022-12-29T08:33:46;98232.25;;;7.95;100.00
22755;BME280;11544;42.020;23.094;2022-12-29T08:36:13;98226.94;;;8.07;100.00
22755;BME280;11544;42.020;23.094;2022-12-29T08:38:40;98222.81;;;7.89;100.00
22755;BME280;11544;42.020;23.094;2022-12-29T08:41:09;98235.34;;;8.34;100.00
22755;BME280;11544;42.020;23.094;2022-12-29T08:43:36;98229.19;;;8.45;100.00
22755;BME280;11544;42.020;23.094;2022-12-29T08:46:03;98222.41;;;8.31;100.00
22755;BME280;11544;42.020;23.094;2022-12-29T08:48:30;98219.16;;;8.07;100.00
22755;BME280;11544;42.020;23.094;2022-12-29T08:50:57;98222.50;;;8.21;100.00
22755;BME280;11544;42.020;23.094;2022-12-29T08:53:24;98221.38;;;8.48;100.00
22755;BME280;11544;42.020;23.094;2022-12-29T08:55:58;98220.78;;;8.20;100.00
22755;BME280;11544;42.020;23.094;2022-12-29T08:58:31;98206.34;;;8.77;100.00
22755;BME280;11544;42.020;23.094;2022-12-29T09:00:58;98205.69;;;8.56;100.00
22755;BME280;11544;42.020;23.094;2022-12-29T09:03:25;98198.56;;;8.74;100.00
22755;BME280;11544;42.020;23.094;2022-12-29T09:06:14;98196.63;;;8.91;100.00
22755;BME280;11544;42.020;23.094;2022-12-29T09:08:42;98197.97;;;8.52;100.00
22755;BME280;11544;42.020;23.094;2022-12-29T09:11:16;98200.63;;;8.45;100.00
22755;BME280;11544;42.020;23.094;2022-12-29T09:13:43;98193.13;;;8.92;100.00
22755;BME280;11544;42.020;23.094;2022-12-29T09:16:10;98200.91;;;8.92;100.00
22755;BME280;11544;42.020;23.094;2022-12-29T09:18:37;98186.88;;;9.05;100.00
22755;BME280;11544;42.020;23.094;2022-12-29T09:21:06;98182.47;;;9.10;100.00
22755;BME280;11544;42.020;23.094;2022-12-29T09:23:34;98189.25;;;9.22;100.00
22755;BME280;11544;42.020;23.094;2022-12-29T09:26:01;98177.88;;;9.28;100.00
22755;BME280;11544;42.020;23.094;2022-12-29T09:28:29;98175.56;;;9.09;100.00
22755;BME280;11544;42.020;23.094;2022-12-29T09:30:57;98180.72;;;9.13;100.00
22755;BME280;11544;42.020;23.094;2022-12-29T09:33:24;98166.06;;;9.61;100.00
22755;BME280;11544;42.020;23.094;2022-12-29T09:35:53;98162.81;;;9.50;99.88
22755;BME280;11544;42.020;23.094;2022-12-29T09:38:21;98156.53;;;10.11;100.00
22755;BME280;11544;42.020;23.094;2022-12-29T09:40:59;98146.25;;;10.50;96.38
22755;BME280;11544;42.020;23.094;2022-12-29T09:43:51;98147.00;;;10.97;92.69
22755;BME280;11544;42.020;23.094;2022-12-29T09:46:42;98142.38;;;10.25;92.47
22755;BME280;11544;42.020;23.094;2022-12-29T09:49:25;98151.72;;;9.90;94.47
22755;BME280;11544;42.020;23.094;2022-12-29T09:52:01;98154.03;;;9.57;96.05
22755;BME280;11544;42.020;23.094;2022-12-29T09:54:38;98148.84;;;9.54;96.32
22755;BME280;11544;42.020;23.094;2022-12-29T09:57:20;98147.69;;;9.70;98.05
22755;BME280;11544;42.020;23.094;2022-12-29T09:59:52;98152.34;;;9.51;98.48
22755;BME280;11544;42.020;23.094;2022-12-29T10:02:34;98143.41;;;9.69;98.66
22755;BME280;11544;42.020;23.094;2022-12-29T10:05:09;98140.78;;;9.69;99.52
22755;BME280;11544;42.020;23.094;2022-12-29T10:24:55;98115.31;;;10.33;93.69
22755;BME280;11544;42.020;23.094;2022-12-29T10:27:23;98113.53;;;9.87;95.49
22755;BME280;11544;42.020;23.094;2022-12-29T10:29:56;98107.38;;;9.94;96.27
22755;BME280;11544;42.020;23.094;2022-12-29T10:34:59;98106.38;;;10.02;96.18
22755;BME280;11544;42.020;23.094;2022-12-29T10:40:27;98100.63;;;10.29;95.98
22755;BME280;11544;42.020;23.094;2022-12-29T10:42:57;98099.09;;;10.17;95.93
22755;BME280;11544;42.020;23.094;2022-12-29T10:45:29;98090.34;;;10.22;95.75
22755;BME280;11544;42.020;23.094;2022-12-29T10:48:01;98096.03;;;10.42;95.46
22755;BME280;11544;42.020;23.094;2022-12-29T10:50:30;98089.25;;;10.74;94.56
22755;BME280;11544;42.020;23.094;2022-12-29T10:52:59;98083.22;;;11.11;91.89
22755;BME280;11544;42.020;23.094;2022-12-29T10:55:33;98076.13;;;11.16;90.24
22755;BME280;11544;42.020;23.094;2022-12-29T10:58:06;98072.25;;;11.32;88.61
22755;BME280;11544;42.020;23.094;2022-12-29T11:00:33;98072.34;;;11.63;88.39
22755;BME280;11544;42.020;23.094;2022-12-29T11:05:49;98056.91;;;11.89;86.04
22755;BME280;11544;42.020;23.094;2022-12-29T11:08:22;98056.16;;;11.83;86.88
22755;BME280;11544;42.020;23.094;2022-12-29T11:11:03;98054.72;;;12.36;85.83
22755;BME280;11544;42.020;23.094;2022-12-29T11:13:33;98049.34;;;12.09;85.43
22755;BME280;11544;42.020;23.094;2022-12-29T11:16:05;98046.44;;;12.20;85.39
22755;BME280;11544;42.020;23.094;2022-12-29T11:18:39;98049.97;;;12.48;85.80
22755;BME280;11544;42.020;23.094;2022-12-29T11:21:25;98047.44;;;12.45;84.76
22755;BME280;11544;42.020;23.094;2022-12-29T11:23:58;98037.28;;;12.64;84.28
22755;BME280;11544;42.020;23.094;2022-12-29T11:26:29;98041.22;;;12.49;84.86
22755;BME280;11544;42.020;23.094;2022-12-29T11:29:11;98032.50;;;12.49;84.95
22755;BME280;11544;42.020;23.094;2022-12-29T11:31:44;98025.19;;;12.60;84.51
22755;BME280;11544;42.020;23.094;2022-12-29T11:34:40;98020.59;;;12.68;84.17
22755;BME280;11544;42.020;23.094;2022-12-29T11:37:12;98010.06;;;12.70;83.85
22755;BME280;11544;42.020;23.094;2022-12-29T11:39:56;98015.81;;;12.83;83.58
22755;BME280;11544;42.020;23.094;2022-12-29T11:42:50;98011.59;;;13.04;81.57
22755;BME280;11544;42.020;23.094;2022-12-29T11:50:25;97999.34;;;13.06;80.52
22755;BME280;11544;42.020;23.094;2022-12-29T11:52:59;97999.56;;;12.71;80.74
22755;BME280;11544;42.020;23.094;2022-12-29T11:55:27;97995.84;;;12.79;80.08
22755;BME280;11544;42.020;23.094;2022-12-29T11:57:57;97995.59;;;12.86;80.63
22755;BME280;11544;42.020;23.094;2022-12-29T12:00:27;97999.00;;;12.90;79.92
22755;BME280;11544;42.020;23.094;2022-12-29T12:03:11;97987.56;;;12.92;80.30
22755;BME280;11544;42.020;23.094;2022-12-29T12:05:47;97990.75;;;13.02;79.12
22755;BME280;11544;42.020;23.094;2022-12-29T12:08:33;97984.59;;;13.03;78.38
22755;BME280;11544;42.020;23.094;2022-12-29T12:16:17;97979.50;;;12.99;79.15
22755;BME280;11544;42.020;23.094;2022-12-29T12:18:52;97983.22;;;12.65;79.86
22755;BME280;11544;42.020;23.094;2022-12-29T12:21:41;97979.75;;;12.91;79.57
22755;BME280;11544;42.020;23.094;2022-12-29T12:27:08;97961.09;;;13.02;78.47
22755;BME280;11544;42.020;23.094;2022-12-29T12:29:43;97968.56;;;12.87;78.24
22755;BME280;11544;42.020;23.094;2022-12-29T12:34:45;97967.97;;;12.78;79.01
22755;BME280;11544;42.020;23.094;2022-12-29T12:45:49;97967.03;;;12.24;81.42
22755;BME280;11544;42.020;23.094;2022-12-29T12:59:30;97974.47;;;11.77;86.65
22755;BME280;11544;42.020;23.094;2022-12-29T13:15:31;97975.78;;;11.93;85.87
22755;BME280;11544;42.020;23.094;2022-12-29T13:20:53;97982.19;;;12.13;85.06
22755;BME280;11544;42.020;23.094;2022-12-29T13:23:32;97975.19;;;11.82;85.94
22755;BME280;11544;42.020;23.094;2022-12-29T13:26:20;97975.84;;;11.90;85.42
22755;BME280;11544;42.020;23.094;2022-12-29T13:31:42;97973.81;;;12.00;83.97
22755;BME280;11544;42.020;23.094;2022-12-29T13:36:53;97976.78;;;11.88;84.67
22755;BME280;11544;42.020;23.094;2022-12-29T13:39:41;97968.84;;;11.92;84.96
22755;BME280;11544;42.020;23.094;2022-12-29T13:42:10;97967.41;;;11.80;84.65
22755;BME280;11544;42.020;23.094;2022-12-29T13:44:45;97968.31;;;11.79;85.26
22755;BME280;11544;42.020;23.094;2022-12-29T13:50:02;97965.25;;;11.63;85.93
22755;BME280;11544;42.020;23.094;2022-12-29T13:52:50;97971.72;;;11.81;84.91
22755;BME280;11544;42.020;23.094;2022-12-29T13:58:01;97983.88;;;11.51;86.25
22755;BME280;11544;42.020;23.094;2022-12-29T14:00:38;97984.34;;;11.65;86.68
22755;BME280;11544;42.020;23.094;2022-12-29T14:05:36;97986.50;;;11.51;87.37
22755;BME280;11544;42.020;23.094;2022-12-29T14:08:04;97991.38;;;11.63;87.34
22755;BME280;11544;42.020;23.094;2022-12-29T14:10:35;97986.06;;;11.66;87.07
22755;BME280;11544;42.020;23.094;2022-12-29T14:15:55;97995.50;;;11.39;87.92
22755;BME280;11544;42.020;23.094;2022-12-29T14:18:28;97998.31;;;11.32;89.56
22755;BME280;11544;42.020;23.094;2022-12-29T14:21:19;98001.97;;;11.25;90.27
22755;BME280;11544;42.020;23.094;2022-12-29T14:23:50;98002.53;;;11.36;89.51
22755;BME280;11544;42.020;23.094;2022-12-29T14:28:53;97998.09;;;11.41;88.53
22755;BME280;11544;42.020;23.094;2022-12-29T14:36:52;98003.81;;;12.76;95.17
22755;BME280;11544;42.020;23.094;2022-12-29T14:44:55;98006.56;;;11.15;89.70
22755;BME280;11544;42.020;23.094;2022-12-29T14:50:42;98001.41;;;10.76;91.98
22755;BME280;11544;42.020;23.094;2022-12-29T14:56:17;98014.03;;;10.57;94.56
22755;BME280;11544;42.020;23.094;2022-12-29T14:58:48;98015.16;;;10.45;96.30
22755;BME280;11544;42.020;23.094;2022-12-29T15:04:05;98010.75;;;10.07;98.16
22755;BME280;11544;42.020;23.094;2022-12-29T15:06:36;98020.06;;;10.17;98.72
22755;BME280;11544;42.020;23.094;2022-12-29T15:09:34;98022.78;;;10.12;98.41
22755;BME280;11544;42.020;23.094;2022-12-29T15:14:54;98020.34;;;10.03;98.57
22755;BME280;11544;42.020;23.094;2022-12-29T15:17:30;98022.81;;;9.66;99.93
22755;BME280;11544;42.020;23.094;2022-12-29T15:19:59;98020.81;;;9.80;99.84
22755;BME280;11544;42.020;23.094;2022-12-29T15:22:29;98020.50;;;9.50;100.00
22755;BME280;11544;42.020;23.094;2022-12-29T15:25:00;98029.16;;;9.51;100.00
22755;BME280;11544;42.020;23.094;2022-12-29T15:27:30;98032.44;;;9.62;100.00
22755;BME280;11544;42.020;23.094;2022-12-29T15:30:03;98032.53;;;9.56;100.00
22755;BME280;11544;42.020;23.094;2022-12-29T15:32:40;98037.44;;;9.25;100.00
22755;BME280;11544;42.020;23.094;2022-12-29T15:37:57;98045.38;;;9.16;100.00
22755;BME280;11544;42.020;23.094;2022-12-29T15:45:38;98038.97;;;8.84;100.00
22755;BME280;11544;42.020;23.094;2022-12-29T15:48:23;98044.19;;;8.82;100.00
22755;BME280;11544;42.020;23.094;2022-12-29T15:51:40;98048.47;;;8.86;100.00
22755;BME280;11544;42.020;23.094;2022-12-29T15:54:00;98039.13;;;8.72;100.00
22755;BME280;11544;42.020;23.094;2022-12-29T15:56:29;98045.16;;;8.74;100.00
22755;BME280;11544;42.020;23.094;2022-12-29T15:58:57;98048.50;;;8.83;100.00
22755;BME280;11544;42.020;23.094;2022-12-29T16:01:37;98048.88;;;8.57;100.00
22755;BME280;11544;42.020;23.094;2022-12-29T16:04:09;98046.38;;;8.51;100.00
22755;BME280;11544;42.020;23.094;2022-12-29T16:06:57;98047.25;;;8.50;100.00
22755;BME280;11544;42.020;23.094;2022-12-29T16:09:33;98048.94;;;8.53;100.00
22755;BME280;11544;42.020;23.094;2022-12-29T16:12:19;98041.97;;;8.58;100.00
22755;BME280;11544;42.020;23.094;2022-12-29T16:14:51;98056.66;;;8.60;100.00